createdAt,value
2023-04-25T00:00:36.386Z,8.40
2023-04-25T00:03:44.120Z,8.35
2023-04-25T00:06:47.225Z,8.35
2023-04-25T00:09:55.842Z,8.29
2023-04-25T00:13:03.693Z,8.22
2023-04-25T00:16:11.290Z,8.20
2023-04-25T00:19:20.014Z,8.21
2023-04-25T00:22:27.845Z,8.15
2023-04-25T00:25:35.428Z,8.17
2023-04-25T00:28:44.541Z,8.15
2023-04-25T00:31:52.345Z,8.15
2023-04-25T00:34:59.878Z,8.12
2023-04-25T00:38:08.893Z,8.11
2023-04-25T00:41:16.385Z,8.14
2023-04-25T00:44:24.248Z,8.15
2023-04-25T00:47:31.869Z,8.08
2023-04-25T00:50:40.959Z,8.04
2023-04-25T00:53:48.876Z,8.07
2023-04-25T00:56:56.481Z,8.07
2023-04-25T01:00:05.453Z,8.10
2023-04-25T01:03:13.667Z,8.10
2023-04-25T01:06:21.020Z,8.11
2023-04-25T01:09:30.021Z,8.14
2023-04-25T01:12:37.926Z,8.14
2023-04-25T01:15:45.123Z,8.11
2023-04-25T01:18:54.438Z,8.08
2023-04-25T01:22:01.955Z,8.04
2023-04-25T01:25:09.498Z,8.02
2023-04-25T01:28:17.514Z,8.00
2023-04-25T01:31:26.401Z,8.00
2023-04-25T01:34:33.940Z,7.94
2023-04-25T01:37:41.482Z,7.96
2023-04-25T01:40:50.869Z,7.97
2023-04-25T01:43:58.399Z,7.93
2023-04-25T01:47:05.854Z,7.92
2023-04-25T01:50:15.227Z,7.90
2023-04-25T01:53:22.410Z,7.89
2023-04-25T01:56:30.535Z,7.89
2023-04-25T01:59:40.067Z,7.89
2023-04-25T02:02:48.064Z,7.89
2023-04-25T02:05:55.614Z,7.87
2023-04-25T02:09:03.252Z,7.90
2023-04-25T02:12:12.144Z,7.89
2023-04-25T02:15:19.673Z,7.84
2023-04-25T02:18:27.170Z,7.85
2023-04-25T02:21:36.706Z,7.89
2023-04-25T02:24:44.134Z,7.87
2023-04-25T02:27:52.070Z,7.89
2023-04-25T02:31:01.285Z,7.89
2023-04-25T02:34:08.493Z,7.90
2023-04-25T02:37:16.345Z,7.90
2023-04-25T02:40:25.559Z,7.87
2023-04-25T02:43:32.799Z,7.85
2023-04-25T02:46:40.694Z,7.85
2023-04-25T02:49:49.703Z,7.82
2023-04-25T02:52:56.938Z,7.78
2023-04-25T02:56:04.901Z,7.78
2023-04-25T02:59:12.464Z,7.78
2023-04-25T03:02:21.817Z,7.82
2023-04-25T03:05:29.831Z,7.79
2023-04-25T03:08:37.365Z,7.75
2023-04-25T03:11:46.394Z,7.71
2023-04-25T03:14:53.480Z,7.74
2023-04-25T03:18:01.408Z,7.75
2023-04-25T03:21:10.763Z,7.72
2023-04-25T03:24:17.913Z,7.67
2023-04-25T03:27:25.711Z,7.63
2023-04-25T03:30:34.754Z,7.67
2023-04-25T03:33:42.352Z,7.63
2023-04-25T03:36:50.162Z,7.55
2023-04-25T03:39:57.825Z,7.45
2023-04-25T03:43:06.642Z,7.44
2023-04-25T03:46:14.563Z,7.41
2023-04-25T03:49:22.995Z,7.34
2023-04-25T03:52:32.115Z,7.24
2023-04-25T03:55:42.316Z,7.13
2023-04-25T03:58:40.865Z,7.05
2023-04-25T04:01:49.803Z,7.01
2023-04-25T04:04:57.673Z,6.91
2023-04-25T04:08:05.707Z,6.84
2023-04-25T04:11:14.371Z,6.80
2023-04-25T04:14:22.109Z,6.76
2023-04-25T04:17:30.101Z,6.71
2023-04-25T04:20:37.298Z,6.72
2023-04-25T04:23:46.740Z,6.80
2023-04-25T04:26:54.175Z,6.80
2023-04-25T04:30:01.534Z,6.80
2023-04-25T04:33:10.419Z,6.86
2023-04-25T04:36:17.809Z,6.89
2023-04-25T04:39:25.214Z,6.90
2023-04-25T04:42:33.777Z,6.91
2023-04-25T04:45:41.608Z,6.90
2023-04-25T04:48:49.497Z,6.94
2023-04-25T04:51:59.638Z,6.95
2023-04-25T04:55:07.483Z,6.94
2023-04-25T04:58:16.492Z,6.94
2023-04-25T05:01:25.401Z,6.99
2023-04-25T05:04:35.113Z,7.02
2023-04-25T05:07:42.572Z,7.04
2023-04-25T05:10:49.821Z,7.19
2023-04-25T05:13:58.432Z,7.29
2023-04-25T05:17:06.138Z,7.29
2023-04-25T05:20:13.751Z,7.29
2023-04-25T05:23:23.284Z,7.23
2023-04-25T05:26:30.742Z,7.22
2023-04-25T05:29:38.396Z,7.19
2023-04-25T05:32:38.087Z,7.15
2023-04-25T05:35:46.276Z,7.15
2023-04-25T05:38:53.769Z,7.20
2023-04-25T05:42:01.084Z,7.32
2023-04-25T05:45:10.268Z,7.50
2023-04-25T05:48:18.683Z,7.58
2023-04-25T05:51:26.024Z,7.56
2023-04-25T05:54:35.737Z,7.63
2023-04-25T05:57:42.976Z,7.60
2023-04-25T06:00:50.380Z,7.67
2023-04-25T06:03:59.937Z,7.79
2023-04-25T06:07:07.975Z,7.90
2023-04-25T06:10:15.198Z,7.89
2023-04-25T06:13:24.416Z,7.92
2023-04-25T06:16:32.451Z,7.82
2023-04-25T06:19:40.171Z,7.85
2023-04-25T06:22:49.467Z,7.96
2023-04-25T06:25:57.022Z,8.04
2023-04-25T06:29:04.302Z,7.82
2023-04-25T06:32:13.143Z,7.87
2023-04-25T06:35:21.993Z,7.97
2023-04-25T06:38:29.459Z,8.10
2023-04-25T06:41:36.902Z,8.29
2023-04-25T06:44:46.098Z,8.42
2023-04-25T06:47:53.490Z,8.39
2023-04-25T06:51:01.607Z,8.28
2023-04-25T06:54:11.433Z,8.18
2023-04-25T06:57:19.443Z,8.26
2023-04-25T07:00:26.973Z,8.60
2023-04-25T07:03:36.503Z,8.84
2023-04-25T07:06:43.882Z,8.86
2023-04-25T07:09:52.032Z,8.78
2023-04-25T07:12:59.996Z,8.90
2023-04-25T07:16:08.584Z,8.90
2023-04-25T07:19:16.719Z,8.83
2023-04-25T07:22:24.736Z,8.54
2023-04-25T07:25:33.373Z,8.39
2023-04-25T07:28:41.144Z,8.29
2023-04-25T07:31:49.163Z,8.33
2023-04-25T07:34:58.096Z,8.40
2023-04-25T07:38:05.674Z,8.33
2023-04-25T07:41:13.293Z,8.47
2023-04-25T07:44:22.414Z,8.71
2023-04-25T07:47:29.693Z,8.79
2023-04-25T07:50:37.306Z,8.81
2023-04-25T07:53:47.549Z,9.15
2023-04-25T07:56:56.034Z,9.18
2023-04-25T08:00:04.130Z,9.18
2023-04-25T08:03:12.281Z,9.30
2023-04-25T08:06:20.975Z,9.40
2023-04-25T08:09:28.977Z,9.15
2023-04-25T08:12:37.269Z,9.04
2023-04-25T08:15:45.868Z,9.06
2023-04-25T08:18:53.915Z,9.16
2023-04-25T08:22:01.722Z,9.42
2023-04-25T08:25:10.249Z,9.79
2023-04-25T08:28:18.130Z,9.96
2023-04-25T08:31:25.320Z,10.07
2023-04-25T08:34:34.085Z,10.06
2023-04-25T08:37:41.977Z,9.76
2023-04-25T08:40:49.673Z,9.67
2023-04-25T08:43:57.492Z,9.30
2023-04-25T08:47:06.878Z,9.01
2023-04-25T08:50:14.497Z,8.93
2023-04-25T08:53:22.789Z,8.87
2023-04-25T08:56:31.694Z,9.13
2023-04-25T08:59:39.408Z,9.30
2023-04-25T09:02:47.190Z,9.45
2023-04-25T09:05:56.117Z,9.63
2023-04-25T09:09:03.737Z,9.73
2023-04-25T09:12:11.797Z,9.88
2023-04-25T09:15:20.957Z,9.83
2023-04-25T09:18:30.554Z,9.58
2023-04-25T09:21:38.631Z,9.49
2023-04-25T09:24:46.088Z,9.86
2023-04-25T09:27:55.473Z,10.28
2023-04-25T09:31:03.261Z,10.47
2023-04-25T09:34:10.957Z,10.42
2023-04-25T09:37:20.368Z,10.19
2023-04-25T09:40:27.966Z,10.07
2023-04-25T09:43:35.965Z,9.96
2023-04-25T09:46:45.184Z,9.93
2023-04-25T09:49:53.037Z,9.85
2023-04-25T09:53:00.800Z,9.66
2023-04-25T09:56:10.095Z,9.53
2023-04-25T09:59:18.110Z,9.45
2023-04-25T10:02:25.845Z,9.35
2023-04-25T10:05:34.982Z,9.40
2023-04-25T10:08:42.965Z,9.40
2023-04-25T10:11:50.649Z,9.56
2023-04-25T10:14:58.730Z,9.85
2023-04-25T10:18:07.736Z,10.21
2023-04-25T10:21:15.029Z,10.68
2023-04-25T10:24:22.643Z,10.94
2023-04-25T10:27:31.894Z,11.07
2023-04-25T10:30:39.314Z,10.95
2023-04-25T10:33:46.850Z,10.77
2023-04-25T10:36:55.834Z,10.52
2023-04-25T10:40:03.122Z,10.44
2023-04-25T10:43:10.840Z,10.65
2023-04-25T10:46:20.097Z,10.71
2023-04-25T10:49:28.501Z,10.80
2023-04-25T10:52:36.227Z,10.76
2023-04-25T10:55:44.116Z,10.92
2023-04-25T10:58:54.084Z,10.99
2023-04-25T11:02:02.246Z,11.01
2023-04-25T11:05:09.888Z,10.98
2023-04-25T11:08:19.182Z,10.86
2023-04-25T11:11:26.660Z,11.01
2023-04-25T11:14:34.443Z,10.94
2023-04-25T11:17:44.453Z,10.68
2023-04-25T11:20:51.821Z,10.74
2023-04-25T11:24:00.165Z,10.73
2023-04-25T11:27:09.038Z,11.06
2023-04-25T11:30:17.257Z,11.21
2023-04-25T11:33:24.945Z,10.94
2023-04-25T11:36:32.595Z,10.65
2023-04-25T11:39:41.884Z,10.34
2023-04-25T11:42:49.796Z,10.00
2023-04-25T11:45:59.115Z,9.75
2023-04-25T11:49:08.780Z,9.50
2023-04-25T11:52:16.635Z,9.40
2023-04-25T11:55:24.718Z,9.52
2023-04-25T11:58:34.414Z,9.73
2023-04-25T12:01:42.078Z,10.03
2023-04-25T12:04:50.847Z,10.43
2023-04-25T12:08:00.405Z,10.71
2023-04-25T12:11:08.736Z,10.92
2023-04-25T12:14:17.229Z,10.94
2023-04-25T12:17:26.292Z,11.02
2023-04-25T12:20:34.742Z,10.99
2023-04-25T12:23:43.631Z,10.91
2023-04-25T12:26:51.665Z,11.29
2023-04-25T12:30:00.937Z,12.19
2023-04-25T12:33:09.471Z,12.30
2023-04-25T12:36:17.308Z,12.09
2023-04-25T12:39:26.973Z,12.24
2023-04-25T12:42:35.490Z,12.16
2023-04-25T12:45:43.859Z,11.75
2023-04-25T12:48:53.509Z,11.47
2023-04-25T12:52:01.427Z,11.24
2023-04-25T12:55:09.750Z,10.66
2023-04-25T12:58:19.113Z,10.34
2023-04-25T13:01:27.262Z,10.09
2023-04-25T13:04:36.161Z,10.04
2023-04-25T13:07:43.842Z,9.88
2023-04-25T13:10:53.688Z,9.86
2023-04-25T13:14:02.001Z,10.07
2023-04-25T13:17:09.946Z,10.15
2023-04-25T13:20:19.468Z,10.39
2023-04-25T13:23:28.804Z,10.70
2023-04-25T13:26:36.975Z,10.77
2023-04-25T13:29:46.818Z,11.13
2023-04-25T13:32:55.452Z,11.56
2023-04-25T13:36:03.273Z,11.43
2023-04-25T13:39:12.976Z,11.34
2023-04-25T13:42:21.295Z,11.02
2023-04-25T13:45:31.517Z,10.77
2023-04-25T13:48:30.235Z,10.78
2023-04-25T13:51:40.453Z,10.76
2023-04-25T13:54:49.595Z,10.60
2023-04-25T13:57:57.530Z,10.44
2023-04-25T14:01:07.001Z,10.66
2023-04-25T14:04:17.455Z,11.01
2023-04-25T14:07:25.659Z,10.99
2023-04-25T14:10:35.154Z,10.81
2023-04-25T14:13:43.574Z,10.66
2023-04-25T14:16:52.022Z,10.25
2023-04-25T14:20:01.658Z,10.06
2023-04-25T14:23:10.133Z,10.06
2023-04-25T14:26:17.777Z,9.97
2023-04-25T14:29:27.497Z,10.09
2023-04-25T14:32:36.002Z,10.18
2023-04-25T14:35:43.742Z,10.12
2023-04-25T14:38:52.207Z,10.28
2023-04-25T14:42:01.864Z,10.80
2023-04-25T14:45:09.747Z,10.98
2023-04-25T14:48:18.303Z,11.16
2023-04-25T14:51:27.669Z,11.25
2023-04-25T14:54:35.830Z,11.36
2023-04-25T14:57:44.062Z,11.46
2023-04-25T15:00:53.824Z,11.53
2023-04-25T15:04:02.184Z,11.61
2023-04-25T15:07:10.762Z,11.32
2023-04-25T15:10:20.132Z,10.89
2023-04-25T15:13:28.086Z,10.30
2023-04-25T15:16:36.667Z,10.15
2023-04-25T15:19:44.554Z,10.01
2023-04-25T15:22:54.137Z,9.94
2023-04-25T15:26:02.147Z,10.00
2023-04-25T15:29:11.113Z,10.06
2023-04-25T15:32:20.839Z,10.03
2023-04-25T15:35:28.546Z,10.28
2023-04-25T15:38:36.817Z,10.39
2023-04-25T15:41:46.573Z,10.36
2023-04-25T15:44:54.335Z,10.30
2023-04-25T15:48:03.095Z,10.19
2023-04-25T15:51:12.338Z,10.47
2023-04-25T15:54:20.409Z,10.83
2023-04-25T15:57:28.992Z,11.21
2023-04-25T16:00:38.287Z,11.02
2023-04-25T16:03:46.900Z,10.51
2023-04-25T16:06:55.540Z,10.24
2023-04-25T16:10:03.957Z,10.12
2023-04-25T16:13:13.477Z,9.85
2023-04-25T16:16:22.141Z,9.35
2023-04-25T16:19:30.371Z,9.21
2023-04-25T16:22:39.950Z,9.16
2023-04-25T16:25:48.243Z,9.20
2023-04-25T16:28:56.953Z,9.20
2023-04-25T16:32:06.521Z,9.16
2023-04-25T16:35:14.619Z,9.15
2023-04-25T16:38:23.064Z,9.48
2023-04-25T16:41:32.504Z,9.94
2023-04-25T16:44:40.373Z,10.06
2023-04-25T16:47:48.703Z,9.82
2023-04-25T16:50:56.943Z,9.43
2023-04-25T16:54:06.542Z,9.18
2023-04-25T16:57:15.022Z,9.15
2023-04-25T17:00:23.037Z,9.18
2023-04-25T17:03:34.021Z,9.16
2023-04-25T17:06:33.572Z,9.10
2023-04-25T17:09:41.325Z,8.96
2023-04-25T17:12:51.152Z,8.86
2023-04-25T17:15:59.866Z,8.84
2023-04-25T17:19:07.732Z,8.99
2023-04-25T17:22:17.250Z,9.09
2023-04-25T17:25:25.604Z,9.09
2023-04-25T17:28:33.408Z,9.15
2023-04-25T17:31:41.708Z,8.99
2023-04-25T17:34:51.200Z,8.83
2023-04-25T17:37:59.639Z,8.72
2023-04-25T17:41:07.762Z,8.65
2023-04-25T17:44:17.276Z,8.54
2023-04-25T17:47:25.728Z,8.48
2023-04-25T17:50:33.687Z,8.44
2023-04-25T17:53:43.226Z,8.39
2023-04-25T17:56:51.631Z,8.11
2023-04-25T17:59:59.754Z,7.93
2023-04-25T18:03:09.034Z,7.85
2023-04-25T18:06:17.764Z,7.75
2023-04-25T18:09:25.728Z,7.60
2023-04-25T18:12:35.092Z,7.53
2023-04-25T18:15:43.604Z,7.47
2023-04-25T18:18:51.665Z,7.47
2023-04-25T18:21:59.681Z,7.49
2023-04-25T18:25:09.391Z,7.55
2023-04-25T18:28:17.544Z,7.56
2023-04-25T18:31:25.644Z,7.60
2023-04-25T18:34:35.410Z,7.63
2023-04-25T18:37:43.310Z,7.66
2023-04-25T18:40:59.197Z,7.60
2023-04-25T18:43:57.892Z,7.52
2023-04-25T18:47:06.107Z,7.47
2023-04-25T18:50:14.024Z,7.42
2023-04-25T18:53:23.473Z,7.35
2023-04-25T18:56:31.916Z,7.27
2023-04-25T18:59:40.190Z,7.22
2023-04-25T19:02:48.472Z,7.16
2023-04-25T19:05:58.151Z,7.13
2023-04-25T19:09:05.700Z,7.12
2023-04-25T19:12:13.550Z,7.04
2023-04-25T19:15:23.318Z,6.98
2023-04-25T19:18:30.902Z,6.91
2023-04-25T19:21:39.291Z,6.86
2023-04-25T19:24:59.048Z,6.81
2023-04-25T19:27:54.049Z,6.73
2023-04-25T19:31:02.401Z,6.68
2023-04-25T19:34:12.673Z,6.56
2023-04-25T19:37:20.405Z,6.51
2023-04-25T19:40:28.301Z,6.44
2023-04-25T19:43:37.491Z,6.35
2023-04-25T19:46:45.945Z,6.26
2023-04-25T19:49:53.995Z,6.19
2023-04-25T19:53:02.039Z,6.13
2023-04-25T19:56:12.060Z,6.11
2023-04-25T19:59:20.206Z,6.13
2023-04-25T20:02:27.845Z,6.13
2023-04-25T20:05:37.731Z,6.09
2023-04-25T20:08:45.253Z,6.03
2023-04-25T20:11:53.586Z,6.01
2023-04-25T20:15:03.417Z,6.00
2023-04-25T20:18:11.225Z,5.98
2023-04-25T20:21:19.642Z,6.03
2023-04-25T20:24:29.630Z,5.98
2023-04-25T20:27:37.262Z,5.92
2023-04-25T20:30:45.796Z,5.83
2023-04-25T20:33:54.064Z,5.74
2023-04-25T20:37:03.071Z,5.68
2023-04-25T20:40:11.599Z,5.64
2023-04-25T20:43:19.549Z,5.63
2023-04-25T20:46:29.271Z,5.56
2023-04-25T20:49:37.260Z,5.50
2023-04-25T20:52:45.135Z,5.46
2023-04-25T20:55:55.554Z,5.46
2023-04-25T20:59:03.235Z,5.50
2023-04-25T21:02:11.171Z,5.57
2023-04-25T21:05:21.251Z,5.63
2023-04-25T21:08:29.476Z,5.68
2023-04-25T21:11:37.454Z,5.75
2023-04-25T21:14:46.902Z,5.82
2023-04-25T21:17:54.510Z,5.86
2023-04-25T21:21:02.811Z,5.88
2023-04-25T21:24:11.293Z,5.86
2023-04-25T21:27:20.532Z,5.83
2023-04-25T21:30:28.841Z,5.77
2023-04-25T21:33:37.134Z,5.73
2023-04-25T21:36:46.323Z,5.66
2023-04-25T21:39:54.826Z,5.63
2023-04-25T21:43:03.472Z,5.67
2023-04-25T21:46:23.111Z,5.74
2023-04-25T21:49:18.194Z,5.81
2023-04-25T21:52:25.999Z,5.85
2023-04-25T21:55:35.547Z,5.82
2023-04-25T21:58:43.560Z,5.81
2023-04-25T22:01:51.431Z,5.77
2023-04-25T22:05:00.026Z,5.74
2023-04-25T22:08:09.395Z,5.74
2023-04-25T22:11:17.141Z,5.78
2023-04-25T22:14:25.449Z,5.81
2023-04-25T22:17:34.516Z,5.81
2023-04-25T22:20:42.961Z,5.78
2023-04-25T22:23:51.316Z,5.71
2023-04-25T22:27:00.529Z,5.57
2023-04-25T22:30:08.974Z,5.45
2023-04-25T22:33:17.320Z,5.34
2023-04-25T22:36:26.340Z,5.27
2023-04-25T22:39:34.599Z,5.20
2023-04-25T22:42:42.868Z,5.14
2023-04-25T22:45:52.006Z,5.09
2023-04-25T22:49:00.538Z,5.02
2023-04-25T22:52:08.366Z,4.96
2023-04-25T22:55:16.388Z,4.89
2023-04-25T22:58:25.831Z,4.84
2023-04-25T23:01:34.276Z,4.80
2023-04-25T23:04:42.664Z,4.73
2023-04-25T23:07:52.254Z,4.65
2023-04-25T23:11:00.491Z,4.61
2023-04-25T23:14:08.733Z,4.57
2023-04-25T23:17:17.737Z,4.52
2023-04-25T23:20:26.078Z,4.46
2023-04-25T23:23:34.396Z,4.40
2023-04-25T23:26:43.423Z,4.34
2023-04-25T23:29:51.854Z,4.26
2023-04-25T23:33:00.680Z,4.22
2023-04-25T23:36:08.279Z,4.18
2023-04-25T23:39:17.921Z,4.16
2023-04-25T23:42:26.571Z,4.08
2023-04-25T23:45:34.257Z,4.04
2023-04-25T23:48:44.021Z,4.03
2023-04-25T23:51:52.080Z,4.01
2023-04-25T23:55:00.153Z,3.97
2023-04-25T23:58:09.676Z,3.92
